Flight Track Log - Related Links

Times and Time Zones

All times are in EDT time to prevent confusion due to time zone crossing. See the N742AX flight status page for this flight to view local times or setup timezone preferences in your user account.

Time Position Orientation Groundspeed Altitude Reporting Facility
EDT Latitude Longitude Course Direction KTS MPH feet Rate Location/Type
Thu 04:48:08 PM 25.7890 -80.2770 106° East 152 175 900  Level FlightAware ADS-B
Thu 04:48:38 PM 25.7790 -80.2540 116° Southeast 181 208 1,700 1,636 Climbing FlightAware ADS-B
Thu 04:49:03 PM 25.7680 -80.2290 116° Southeast 212 244 2,400 1,964 Climbing FlightAware ADS-B
Thu 04:49:33 PM 25.7560 -80.2010 115° Southeast 226 260 3,500 1,964 Climbing FlightAware ADS-B
Thu 04:49:58 PM 25.7440 -80.1710 114° Southeast 255 293 4,200 1,950 Climbing FlightAware ADS-B
Thu 04:50:13 PM 25.7350 -80.1560 124° Southeast 258 297 4,800 2,800 Climbing FlightAware ADS-B
Thu 04:50:28 PM 25.7180 -80.1460 152° Southeast 256 295 5,600 2,667 Climbing FlightAware ADS-B
Thu 04:50:58 PM 25.6830 -80.1430 176° South 259 298 6,800 1,527 Climbing FlightAware ADS-B
Thu 04:51:23 PM 25.6530 -80.1420 178° South 252 290 7,000 400 Climbing FlightAware ADS-B
Thu 04:51:28 PM 25.6500 -80.1420 180° South 251 289 7,000  Level FlightAware ADS-B
Thu 04:52:03 PM 25.6090 -80.1400 177° South 255 293 7,000 100 Level FlightAware ADS-B
Thu 04:52:28 PM 25.5820 -80.1380 176° South 255 293 7,100 1,333 Climbing FlightAware ADS-B
Thu 04:52:48 PM 25.5510 -80.1260 161° South 278 320 8,000 2,520 Climbing FlightAware ADS-B
Thu 04:53:18 PM 25.5200 -80.1080 152° Southeast 281 323 9,200 2,314 Climbing FlightAware ADS-B
Thu 04:53:58 PM 25.4730 -80.0810 153° Southeast 293 337 10,700 1,760 Climbing FlightAware ADS-B
Thu 04:54:33 PM 25.4260 -80.0550 153° Southeast 337 388 11,400 1,835 Climbing FlightAware ADS-B
Thu 04:55:23 PM 25.3490 -80.0250 161° South 361 415 13,300 1,486 Climbing FlightAware ADS-B
Thu 04:56:18 PM 25.2690 -79.9930 160° South 360 414 14,000 442 Climbing FlightAware ADS-B
Thu 04:56:58 PM 25.2150 -79.9720 161° South 360 414 14,000  Level FlightAware ADS-B
Thu 04:57:38 PM 25.1620 -79.9510 160° South 360 414 14,000 4,463 Level FlightAware ADS-B
Thu 04:58:20 PM 25.0353 -79.9139 160° South 395 455 20,100 4,647 Climbing Miami Center
Thu 04:59:20 PM 24.9233 -79.8719 161° South 415 478 21,900 1,550 Climbing Miami Center
Thu 05:00:20 PM 24.8300 -79.8378 162° South 433 498 23,200 1,500 Climbing Miami Center
Thu 05:01:20 PM 24.7014 -79.7889 161° South 443 510 24,900 1,600 Climbing Miami Center
Thu 05:02:20 PM 24.5747 -79.7425 162° South 454 522 26,400 1,450 Climbing Miami Center
Thu 05:03:20 PM 24.4483 -79.6986 162° South 473 544 27,800 1,350 Climbing Miami Center
Thu 05:04:20 PM 24.3133 -79.6497 162° South 487 560 29,100 1,350 Climbing Miami Center
Thu 05:05:20 PM 24.1806 -79.5944 159° South 501 577 30,500 1,650 Climbing Miami Center
Thu 05:06:20 PM 24.0458 -79.5439 161° South 511 588 32,400 1,900 Climbing Miami Center
Thu 05:08:00 PM 23.8762 -79.4638 154° Southeast  Level Estimated
Thu 05:15:00 PM 23.2037 -79.0328 156° South  Level FlightAware Approximate
Thu 05:16:00 PM 23.1025 -78.9837 156° South  Level FlightAware Approximate
Thu 05:17:00 PM 23.0013 -78.9346 156° South  Level FlightAware Approximate
Thu 05:18:00 PM 22.9001 -78.8856 156° South  Level FlightAware Approximate
Thu 05:19:00 PM 22.7988 -78.8366 156° South  Level FlightAware Approximate
Thu 05:20:00 PM 22.6975 -78.7877 156° South  Level FlightAware Approximate
Thu 05:21:00 PM 22.5963 -78.7389 156° South  Level FlightAware Approximate
Thu 05:22:00 PM 22.4950 -78.6902 156° South  Level FlightAware Approximate
Thu 05:23:00 PM 22.3937 -78.6415 156° South  Level FlightAware Approximate
Thu 05:24:00 PM 22.2924 -78.5929 156° South  Level FlightAware Approximate
Thu 05:25:00 PM 22.1910 -78.5444 156° South  Level FlightAware Approximate
Thu 05:26:00 PM 22.0897 -78.4960 156° South  Level FlightAware Approximate
Thu 05:27:00 PM 21.9883 -78.4476 156° South  Level FlightAware Approximate
Thu 05:28:00 PM 21.8869 -78.3993 156° South  Level FlightAware Approximate
Thu 05:29:00 PM 21.7855 -78.3510 156° South  Level FlightAware Approximate
Thu 05:30:00 PM 21.6844 -78.3022 156° South  Level FlightAware Approximate
Thu 05:31:00 PM 21.5832 -78.2535 156° South  Level FlightAware Approximate
Thu 05:32:00 PM 21.4820 -78.2048 156° South  Level FlightAware Approximate
Thu 05:33:00 PM 21.3809 -78.1561 156° South  Level FlightAware Approximate
Thu 05:34:00 PM 21.2797 -78.1076 156° South  Level FlightAware Approximate
Thu 05:35:00 PM 21.1785 -78.0591 156° South  Level FlightAware Approximate
Thu 05:36:00 PM 21.0772 -78.0107 156° South  Level FlightAware Approximate
Thu 05:37:00 PM 20.9760 -77.9623 156° South  Level FlightAware Approximate
Thu 05:38:00 PM 20.8748 -77.9140 156° South  Level FlightAware Approximate
Thu 05:39:00 PM 20.7735 -77.8658 156° South  Level FlightAware Approximate
Thu 05:40:00 PM 20.6722 -77.8176 156° South  Level FlightAware Approximate
Thu 05:41:00 PM 20.5709 -77.7695 156° South  Level FlightAware Approximate
Thu 05:42:00 PM 20.4696 -77.7215 156° South  Level FlightAware Approximate
Thu 05:43:00 PM 20.3683 -77.6735 156° South  Level FlightAware Approximate
Thu 05:44:00 PM 20.2661 -77.6282 164° South  Level FlightAware Approximate
Thu 05:45:00 PM 20.1594 -77.5962 164° South  Level FlightAware Approximate
Thu 05:46:00 PM 20.0552 -77.5564 158° South  Level FlightAware Approximate
Thu 05:47:00 PM 19.9527 -77.5116 158° South  Level FlightAware Approximate
Thu 05:48:00 PM 19.8502 -77.4668 158° South  Level FlightAware Approximate
Thu 05:49:00 PM 19.7431 -77.4366 163° South  Level FlightAware Approximate
Thu 05:50:00 PM 19.6392 -77.3956 159° South  Level FlightAware Approximate
Thu 05:51:00 PM 19.5355 -77.3542 159° South  Level FlightAware Approximate
Thu 05:52:00 PM 19.4297 -77.3199 167° South  Level FlightAware Approximate
Thu 05:53:00 PM 19.3251 -77.2814 160° South  Level FlightAware Approximate
Thu 05:54:00 PM 19.2209 -77.2413 160° South  Level FlightAware Approximate
Thu 05:55:00 PM 19.1157 -77.2043 162° South  Level FlightAware Approximate
Thu 05:56:00 PM 19.0103 -77.1680 162° South  Level FlightAware Approximate
Thu 05:57:00 PM 18.9049 -77.1317 162° South  Level FlightAware Approximate
Thu 05:58:00 PM 18.7995 -77.0955 162° South  Level FlightAware Approximate
Thu 05:59:00 PM 18.6940 -77.0594 162° South  Level FlightAware Approximate
Thu 06:00:00 PM 18.5910 -77.0164 157° South  Level FlightAware Approximate
Thu 06:01:00 PM 18.4879 -76.9737 162° South  Level FlightAware Approximate
Thu 06:02:00 PM 18.3823 -76.9385 162° South  Level FlightAware Approximate
Thu 06:03:00 PM 18.2773 -76.9009 159° South  Level FlightAware Approximate
Thu 06:04:00 PM 18.1737 -76.8595 159° South  Level FlightAware Approximate
Thu 06:05:00 PM 18.0711 -76.8211 136° Southeast  Level FlightAware Approximate
Thu 06:06:00 PM 17.9661 -76.7864 159° South  Level FlightAware Approximate
Thu 06:07:00 PM 17.9357 -76.7875 North  Level Estimated
Thu 06:08:00 PM 17.9357 -76.7875 North  Level Estimated
Thu 06:09:00 PM 17.9357 -76.7875 North  Level Estimated
Thu 06:10:00 PM 17.9357 -76.7875 North  Level Estimated
Thu 06:11:00 PM 17.9357 -76.7875 North  Level Estimated
Thu 06:12:00 PM 17.9357 -76.7875 North  Level Estimated
Thu 06:13:00 PM 17.9357 -76.7875 North  Level Estimated
Thu 06:14:00 PM 17.9357 -76.7875 North  Level Estimated
Thu 06:15:00 PM 17.9357 -76.7875 North  Level Estimated
Thu 06:16:00 PM 17.9357 -76.7875 North  Level Estimated
Thu 06:17:00 PM 17.9357 -76.7875 North  Level Estimated
Thu 06:18:00 PM 17.9357 -76.7875 North  Level Estimated
Thu 06:19:00 PM 17.9357 -76.7875 North  Level Estimated
Thu 06:20:00 PM 17.9357 -76.7875 North  Level Estimated

Login

Don't have an account? Register now (free) for customized features, flight alerts, and more!